sensor_id;sensor_type;location;lat;lon;timestamp;P1;durP1;ratioP1;P2;durP2;ratioP2
43678;SDS011;29279;50.858;4.392;2023-07-31T00:00:36;19.70;;;6.25;;
43678;SDS011;29279;50.858;4.392;2023-07-31T00:03:02;22.17;;;6.82;;
43678;SDS011;29279;50.858;4.392;2023-07-31T00:05:28;22.13;;;6.75;;
43678;SDS011;29279;50.858;4.392;2023-07-31T00:07:53;18.25;;;5.95;;
43678;SDS011;29279;50.858;4.392;2023-07-31T00:10:19;24.83;;;7.22;;
43678;SDS011;29279;50.858;4.392;2023-07-31T00:12:46;25.63;;;6.57;;
43678;SDS011;29279;50.858;4.392;2023-07-31T00:15:12;21.33;;;6.45;;
43678;SDS011;29279;50.858;4.392;2023-07-31T00:17:39;20.85;;;6.10;;
43678;SDS011;29279;50.858;4.392;2023-07-31T00:20:04;21.20;;;6.32;;
43678;SDS011;29279;50.858;4.392;2023-07-31T00:22:30;24.60;;;6.57;;
43678;SDS011;29279;50.858;4.392;2023-07-31T00:24:56;24.98;;;6.75;;
43678;SDS011;29279;50.858;4.392;2023-07-31T00:27:22;24.27;;;6.75;;
43678;SDS011;29279;50.858;4.392;2023-07-31T00:29:48;28.77;;;6.72;;
43678;SDS011;29279;50.858;4.392;2023-07-31T00:32:14;23.70;;;6.80;;
43678;SDS011;29279;50.858;4.392;2023-07-31T00:34:39;25.92;;;7.13;;
43678;SDS011;29279;50.858;4.392;2023-07-31T00:37:05;22.58;;;6.30;;
43678;SDS011;29279;50.858;4.392;2023-07-31T00:39:33;24.63;;;7.30;;
43678;SDS011;29279;50.858;4.392;2023-07-31T00:42:00;22.42;;;7.43;;
43678;SDS011;29279;50.858;4.392;2023-07-31T00:44:25;27.33;;;7.50;;
43678;SDS011;29279;50.858;4.392;2023-07-31T00:46:51;20.08;;;6.25;;
43678;SDS011;29279;50.858;4.392;2023-07-31T00:49:17;26.27;;;7.50;;
43678;SDS011;29279;50.858;4.392;2023-07-31T00:51:43;19.80;;;7.32;;
43678;SDS011;29279;50.858;4.392;2023-07-31T00:54:09;17.80;;;6.43;;
43678;SDS011;29279;50.858;4.392;2023-07-31T00:56:35;22.50;;;7.03;;
43678;SDS011;29279;50.858;4.392;2023-07-31T00:59:02;17.40;;;6.45;;
43678;SDS011;29279;50.858;4.392;2023-07-31T01:01:28;19.10;;;6.82;;
43678;SDS011;29279;50.858;4.392;2023-07-31T01:03:53;25.20;;;6.75;;
43678;SDS011;29279;50.858;4.392;2023-07-31T01:08:54;26.52;;;7.07;;
43678;SDS011;29279;50.858;4.392;2023-07-31T01:11:28;20.95;;;7.07;;
43678;SDS011;29279;50.858;4.392;2023-07-31T01:13:55;17.60;;;5.82;;
43678;SDS011;29279;50.858;4.392;2023-07-31T01:16:22;17.83;;;5.97;;
43678;SDS011;29279;50.858;4.392;2023-07-31T01:18:48;19.13;;;6.50;;
43678;SDS011;29279;50.858;4.392;2023-07-31T01:24:08;18.33;;;6.03;;
43678;SDS011;29279;50.858;4.392;2023-07-31T01:26:47;17.77;;;5.78;;
43678;SDS011;29279;50.858;4.392;2023-07-31T01:29:23;23.48;;;6.25;;
43678;SDS011;29279;50.858;4.392;2023-07-31T01:32:07;24.67;;;7.20;;
43678;SDS011;29279;50.858;4.392;2023-07-31T01:34:35;22.42;;;6.45;;
43678;SDS011;29279;50.858;4.392;2023-07-31T01:37:02;19.95;;;6.78;;
43678;SDS011;29279;50.858;4.392;2023-07-31T01:39:28;24.83;;;6.63;;
43678;SDS011;29279;50.858;4.392;2023-07-31T01:41:54;20.70;;;6.82;;
43678;SDS011;29279;50.858;4.392;2023-07-31T01:44:19;22.05;;;7.10;;
43678;SDS011;29279;50.858;4.392;2023-07-31T01:46:45;23.23;;;7.25;;
43678;SDS011;29279;50.858;4.392;2023-07-31T01:49:11;20.55;;;6.70;;
43678;SDS011;29279;50.858;4.392;2023-07-31T01:51:36;21.30;;;7.43;;
43678;SDS011;29279;50.858;4.392;2023-07-31T01:54:02;16.30;;;6.13;;
43678;SDS011;29279;50.858;4.392;2023-07-31T01:56:28;18.08;;;6.93;;
43678;SDS011;29279;50.858;4.392;2023-07-31T01:58:54;35.38;;;8.35;;
43678;SDS011;29279;50.858;4.392;2023-07-31T02:01:20;22.08;;;7.93;;
43678;SDS011;29279;50.858;4.392;2023-07-31T02:03:45;24.58;;;7.32;;
43678;SDS011;29279;50.858;4.392;2023-07-31T02:06:11;20.08;;;7.07;;
43678;SDS011;29279;50.858;4.392;2023-07-31T02:08:37;21.10;;;6.30;;
43678;SDS011;29279;50.858;4.392;2023-07-31T02:11:03;15.60;;;6.53;;
43678;SDS011;29279;50.858;4.392;2023-07-31T02:13:28;24.75;;;7.18;;
43678;SDS011;29279;50.858;4.392;2023-07-31T02:15:54;18.95;;;7.13;;
43678;SDS011;29279;50.858;4.392;2023-07-31T02:18:20;25.50;;;7.68;;
43678;SDS011;29279;50.858;4.392;2023-07-31T02:20:50;18.88;;;6.80;;
43678;SDS011;29279;50.858;4.392;2023-07-31T02:23:17;21.90;;;8.13;;
43678;SDS011;29279;50.858;4.392;2023-07-31T02:25:43;16.95;;;5.93;;
43678;SDS011;29279;50.858;4.392;2023-07-31T02:28:09;23.00;;;7.32;;
43678;SDS011;29279;50.858;4.392;2023-07-31T02:30:35;20.48;;;7.28;;
43678;SDS011;29279;50.858;4.392;2023-07-31T02:33:00;22.38;;;7.13;;
43678;SDS011;29279;50.858;4.392;2023-07-31T02:35:26;21.23;;;6.60;;
43678;SDS011;29279;50.858;4.392;2023-07-31T02:37:52;14.77;;;6.03;;
43678;SDS011;29279;50.858;4.392;2023-07-31T02:40:17;16.67;;;6.05;;
43678;SDS011;29279;50.858;4.392;2023-07-31T02:42:43;11.88;;;6.15;;
43678;SDS011;29279;50.858;4.392;2023-07-31T02:45:09;18.67;;;6.38;;
43678;SDS011;29279;50.858;4.392;2023-07-31T02:47:35;13.45;;;5.43;;
43678;SDS011;29279;50.858;4.392;2023-07-31T02:50:01;11.48;;;5.90;;
43678;SDS011;29279;50.858;4.392;2023-07-31T02:52:30;13.25;;;6.43;;
43678;SDS011;29279;50.858;4.392;2023-07-31T02:54:55;15.40;;;6.32;;
43678;SDS011;29279;50.858;4.392;2023-07-31T02:57:22;12.07;;;5.55;;
43678;SDS011;29279;50.858;4.392;2023-07-31T02:59:48;12.68;;;6.03;;
43678;SDS011;29279;50.858;4.392;2023-07-31T03:02:13;11.77;;;5.70;;
43678;SDS011;29279;50.858;4.392;2023-07-31T03:04:39;18.95;;;6.03;;
43678;SDS011;29279;50.858;4.392;2023-07-31T03:07:05;15.50;;;5.40;;
43678;SDS011;29279;50.858;4.392;2023-07-31T03:09:31;13.13;;;5.38;;
43678;SDS011;29279;50.858;4.392;2023-07-31T03:11:56;11.68;;;5.38;;
43678;SDS011;29279;50.858;4.392;2023-07-31T03:14:22;11.20;;;4.63;;
43678;SDS011;29279;50.858;4.392;2023-07-31T03:16:48;15.38;;;4.95;;
43678;SDS011;29279;50.858;4.392;2023-07-31T03:19:14;10.95;;;5.05;;
43678;SDS011;29279;50.858;4.392;2023-07-31T03:21:40;15.43;;;6.07;;
43678;SDS011;29279;50.858;4.392;2023-07-31T03:24:05;13.52;;;5.38;;
43678;SDS011;29279;50.858;4.392;2023-07-31T03:26:31;14.85;;;5.72;;
43678;SDS011;29279;50.858;4.392;2023-07-31T03:28:57;10.77;;;5.50;;
43678;SDS011;29279;50.858;4.392;2023-07-31T03:31:23;12.23;;;6.00;;
43678;SDS011;29279;50.858;4.392;2023-07-31T03:33:49;16.17;;;6.18;;
43678;SDS011;29279;50.858;4.392;2023-07-31T03:36:14;12.88;;;6.25;;
43678;SDS011;29279;50.858;4.392;2023-07-31T03:38:40;21.55;;;6.13;;
43678;SDS011;29279;50.858;4.392;2023-07-31T03:41:06;12.85;;;5.75;;
43678;SDS011;29279;50.858;4.392;2023-07-31T03:43:32;14.70;;;6.15;;
43678;SDS011;29279;50.858;4.392;2023-07-31T03:46:00;12.43;;;5.30;;
43678;SDS011;29279;50.858;4.392;2023-07-31T03:48:26;13.90;;;5.78;;
43678;SDS011;29279;50.858;4.392;2023-07-31T03:50:52;15.30;;;5.93;;
43678;SDS011;29279;50.858;4.392;2023-07-31T03:53:18;16.77;;;6.45;;
43678;SDS011;29279;50.858;4.392;2023-07-31T03:55:43;14.55;;;5.80;;
43678;SDS011;29279;50.858;4.392;2023-07-31T03:58:09;12.82;;;5.75;;
43678;SDS011;29279;50.858;4.392;2023-07-31T04:00:34;12.73;;;5.82;;
43678;SDS011;29279;50.858;4.392;2023-07-31T04:03:00;20.00;;;5.93;;
43678;SDS011;29279;50.858;4.392;2023-07-31T04:05:26;13.27;;;5.25;;
43678;SDS011;29279;50.858;4.392;2023-07-31T04:07:51;14.07;;;5.45;;
43678;SDS011;29279;50.858;4.392;2023-07-31T04:10:17;12.23;;;5.72;;
43678;SDS011;29279;50.858;4.392;2023-07-31T04:12:43;16.00;;;5.82;;
43678;SDS011;29279;50.858;4.392;2023-07-31T04:15:08;14.82;;;5.55;;
43678;SDS011;29279;50.858;4.392;2023-07-31T04:17:34;14.25;;;5.70;;
43678;SDS011;29279;50.858;4.392;2023-07-31T04:20:00;11.45;;;5.97;;
43678;SDS011;29279;50.858;4.392;2023-07-31T04:22:26;19.38;;;6.15;;
43678;SDS011;29279;50.858;4.392;2023-07-31T04:24:52;13.52;;;5.47;;
43678;SDS011;29279;50.858;4.392;2023-07-31T04:27:17;18.15;;;5.80;;
43678;SDS011;29279;50.858;4.392;2023-07-31T04:29:43;15.27;;;5.93;;
43678;SDS011;29279;50.858;4.392;2023-07-31T04:32:11;10.93;;;5.15;;
43678;SDS011;29279;50.858;4.392;2023-07-31T04:34:36;17.40;;;5.20;;
43678;SDS011;29279;50.858;4.392;2023-07-31T04:37:02;17.48;;;5.43;;
43678;SDS011;29279;50.858;4.392;2023-07-31T04:39:28;11.80;;;5.13;;
43678;SDS011;29279;50.858;4.392;2023-07-31T04:41:53;11.55;;;5.00;;
43678;SDS011;29279;50.858;4.392;2023-07-31T04:44:19;18.85;;;6.22;;
43678;SDS011;29279;50.858;4.392;2023-07-31T04:46:45;17.75;;;5.88;;
43678;SDS011;29279;50.858;4.392;2023-07-31T04:49:11;12.88;;;4.60;;
43678;SDS011;29279;50.858;4.392;2023-07-31T04:51:36;13.75;;;4.82;;
43678;SDS011;29279;50.858;4.392;2023-07-31T04:54:02;14.18;;;5.03;;
43678;SDS011;29279;50.858;4.392;2023-07-31T04:56:28;14.88;;;4.97;;
43678;SDS011;29279;50.858;4.392;2023-07-31T04:58:53;13.18;;;4.80;;
43678;SDS011;29279;50.858;4.392;2023-07-31T05:01:19;20.15;;;5.30;;
43678;SDS011;29279;50.858;4.392;2023-07-31T05:03:45;12.38;;;5.00;;
43678;SDS011;29279;50.858;4.392;2023-07-31T05:06:11;12.05;;;5.10;;
43678;SDS011;29279;50.858;4.392;2023-07-31T05:08:38;13.77;;;5.00;;
43678;SDS011;29279;50.858;4.392;2023-07-31T05:11:04;11.80;;;5.63;;
43678;SDS011;29279;50.858;4.392;2023-07-31T05:13:30;15.98;;;5.78;;
43678;SDS011;29279;50.858;4.392;2023-07-31T05:15:56;17.58;;;6.25;;
43678;SDS011;29279;50.858;4.392;2023-07-31T05:18:22;11.30;;;4.85;;
43678;SDS011;29279;50.858;4.392;2023-07-31T05:20:48;14.02;;;5.95;;
43678;SDS011;29279;50.858;4.392;2023-07-31T05:23:13;16.05;;;5.95;;
43678;SDS011;29279;50.858;4.392;2023-07-31T05:25:39;12.10;;;5.35;;
43678;SDS011;29279;50.858;4.392;2023-07-31T05:28:05;12.25;;;5.03;;
43678;SDS011;29279;50.858;4.392;2023-07-31T05:30:30;13.48;;;5.15;;
43678;SDS011;29279;50.858;4.392;2023-07-31T05:32:56;13.07;;;5.38;;
43678;SDS011;29279;50.858;4.392;2023-07-31T05:35:22;12.95;;;5.13;;
43678;SDS011;29279;50.858;4.392;2023-07-31T05:37:48;16.83;;;5.65;;
43678;SDS011;29279;50.858;4.392;2023-07-31T05:40:13;12.18;;;5.55;;
43678;SDS011;29279;50.858;4.392;2023-07-31T05:42:39;19.45;;;5.90;;
43678;SDS011;29279;50.858;4.392;2023-07-31T05:45:08;10.60;;;5.63;;
43678;SDS011;29279;50.858;4.392;2023-07-31T05:47:34;14.55;;;5.68;;
43678;SDS011;29279;50.858;4.392;2023-07-31T05:50:00;19.88;;;6.38;;
43678;SDS011;29279;50.858;4.392;2023-07-31T05:52:26;14.48;;;5.88;;
43678;SDS011;29279;50.858;4.392;2023-07-31T05:54:51;14.48;;;5.20;;
43678;SDS011;29279;50.858;4.392;2023-07-31T05:57:17;15.40;;;4.95;;
43678;SDS011;29279;50.858;4.392;2023-07-31T05:59:42;15.07;;;5.30;;
43678;SDS011;29279;50.858;4.392;2023-07-31T06:02:08;17.58;;;5.30;;
43678;SDS011;29279;50.858;4.392;2023-07-31T06:04:34;12.27;;;5.47;;
43678;SDS011;29279;50.858;4.392;2023-07-31T06:07:00;16.25;;;5.07;;
43678;SDS011;29279;50.858;4.392;2023-07-31T06:09:25;14.27;;;5.63;;
43678;SDS011;29279;50.858;4.392;2023-07-31T06:11:51;13.65;;;5.38;;
43678;SDS011;29279;50.858;4.392;2023-07-31T06:14:17;14.85;;;5.35;;
43678;SDS011;29279;50.858;4.392;2023-07-31T06:16:43;14.20;;;5.00;;
43678;SDS011;29279;50.858;4.392;2023-07-31T06:19:09;18.88;;;5.65;;
43678;SDS011;29279;50.858;4.392;2023-07-31T06:21:35;19.00;;;5.88;;
43678;SDS011;29279;50.858;4.392;2023-07-31T06:24:05;9.90;;;5.32;;
43678;SDS011;29279;50.858;4.392;2023-07-31T06:26:31;15.52;;;5.07;;
43678;SDS011;29279;50.858;4.392;2023-07-31T06:28:56;17.02;;;5.28;;
43678;SDS011;29279;50.858;4.392;2023-07-31T06:31:22;14.73;;;5.35;;
43678;SDS011;29279;50.858;4.392;2023-07-31T06:33:51;12.98;;;4.85;;
43678;SDS011;29279;50.858;4.392;2023-07-31T06:36:17;14.65;;;5.85;;
43678;SDS011;29279;50.858;4.392;2023-07-31T06:38:43;11.35;;;4.65;;
43678;SDS011;29279;50.858;4.392;2023-07-31T06:41:09;12.98;;;5.28;;
43678;SDS011;29279;50.858;4.392;2023-07-31T06:43:35;14.02;;;4.30;;
43678;SDS011;29279;50.858;4.392;2023-07-31T06:46:08;18.08;;;4.80;;
43678;SDS011;29279;50.858;4.392;2023-07-31T06:48:34;13.18;;;3.97;;
43678;SDS011;29279;50.858;4.392;2023-07-31T06:51:01;11.85;;;4.43;;
43678;SDS011;29279;50.858;4.392;2023-07-31T06:53:27;11.55;;;4.40;;
43678;SDS011;29279;50.858;4.392;2023-07-31T06:55:53;11.68;;;4.45;;
43678;SDS011;29279;50.858;4.392;2023-07-31T06:58:19;14.35;;;5.28;;
43678;SDS011;29279;50.858;4.392;2023-07-31T07:00:45;10.45;;;4.20;;
43678;SDS011;29279;50.858;4.392;2023-07-31T07:03:11;13.50;;;4.90;;
43678;SDS011;29279;50.858;4.392;2023-07-31T07:05:39;15.85;;;5.13;;
43678;SDS011;29279;50.858;4.392;2023-07-31T07:08:05;11.68;;;4.32;;
43678;SDS011;29279;50.858;4.392;2023-07-31T07:10:31;14.90;;;4.50;;
43678;SDS011;29279;50.858;4.392;2023-07-31T07:12:56;13.25;;;4.25;;
43678;SDS011;29279;50.858;4.392;2023-07-31T07:15:22;14.18;;;4.25;;
43678;SDS011;29279;50.858;4.392;2023-07-31T07:17:48;11.70;;;4.47;;
43678;SDS011;29279;50.858;4.392;2023-07-31T07:20:13;11.77;;;4.60;;
43678;SDS011;29279;50.858;4.392;2023-07-31T07:22:39;10.52;;;3.70;;
43678;SDS011;29279;50.858;4.392;2023-07-31T07:25:08;11.02;;;4.03;;
43678;SDS011;29279;50.858;4.392;2023-07-31T07:27:33;11.55;;;3.92;;
43678;SDS011;29279;50.858;4.392;2023-07-31T07:29:59;10.90;;;4.75;;
43678;SDS011;29279;50.858;4.392;2023-07-31T07:32:25;9.55;;;3.88;;
43678;SDS011;29279;50.858;4.392;2023-07-31T07:34:51;11.02;;;4.35;;
43678;SDS011;29279;50.858;4.392;2023-07-31T07:37:16;12.75;;;4.40;;
43678;SDS011;29279;50.858;4.392;2023-07-31T07:39:42;13.80;;;4.05;;
43678;SDS011;29279;50.858;4.392;2023-07-31T07:42:08;11.48;;;4.50;;
43678;SDS011;29279;50.858;4.392;2023-07-31T07:44:34;7.55;;;4.40;;
43678;SDS011;29279;50.858;4.392;2023-07-31T07:46:59;14.13;;;4.25;;
43678;SDS011;29279;50.858;4.392;2023-07-31T07:49:25;16.15;;;4.30;;
43678;SDS011;29279;50.858;4.392;2023-07-31T07:51:51;13.45;;;4.60;;
43678;SDS011;29279;50.858;4.392;2023-07-31T07:54:16;10.00;;;4.15;;
43678;SDS011;29279;50.858;4.392;2023-07-31T07:56:42;10.73;;;3.97;;
43678;SDS011;29279;50.858;4.392;2023-07-31T07:59:08;10.38;;;4.28;;
43678;SDS011;29279;50.858;4.392;2023-07-31T08:01:34;11.15;;;4.05;;
43678;SDS011;29279;50.858;4.392;2023-07-31T08:03:59;13.73;;;3.92;;
43678;SDS011;29279;50.858;4.392;2023-07-31T08:06:25;11.55;;;4.18;;
43678;SDS011;29279;50.858;4.392;2023-07-31T08:08:50;9.20;;;3.88;;
43678;SDS011;29279;50.858;4.392;2023-07-31T08:11:16;10.02;;;3.90;;
43678;SDS011;29279;50.858;4.392;2023-07-31T08:13:42;14.10;;;3.90;;
43678;SDS011;29279;50.858;4.392;2023-07-31T08:16:07;10.70;;;3.90;;
43678;SDS011;29279;50.858;4.392;2023-07-31T08:18:33;11.00;;;4.22;;
43678;SDS011;29279;50.858;4.392;2023-07-31T08:21:02;7.30;;;3.90;;
43678;SDS011;29279;50.858;4.392;2023-07-31T08:23:28;12.48;;;3.47;;
43678;SDS011;29279;50.858;4.392;2023-07-31T08:25:53;10.98;;;4.13;;
43678;SDS011;29279;50.858;4.392;2023-07-31T08:28:20;9.02;;;3.25;;
43678;SDS011;29279;50.858;4.392;2023-07-31T08:30:46;9.63;;;3.45;;
43678;SDS011;29279;50.858;4.392;2023-07-31T08:33:11;10.15;;;3.45;;
43678;SDS011;29279;50.858;4.392;2023-07-31T08:35:37;11.90;;;4.03;;
43678;SDS011;29279;50.858;4.392;2023-07-31T08:38:03;14.50;;;4.57;;
43678;SDS011;29279;50.858;4.392;2023-07-31T08:40:28;9.40;;;4.10;;
43678;SDS011;29279;50.858;4.392;2023-07-31T08:42:54;13.30;;;3.65;;
43678;SDS011;29279;50.858;4.392;2023-07-31T08:45:27;9.70;;;3.85;;
43678;SDS011;29279;50.858;4.392;2023-07-31T08:47:53;10.57;;;4.78;;
43678;SDS011;29279;50.858;4.392;2023-07-31T08:50:22;12.93;;;4.32;;
43678;SDS011;29279;50.858;4.392;2023-07-31T08:52:48;9.57;;;3.63;;
43678;SDS011;29279;50.858;4.392;2023-07-31T08:55:16;11.07;;;3.60;;
43678;SDS011;29279;50.858;4.392;2023-07-31T08:57:42;11.98;;;4.00;;
43678;SDS011;29279;50.858;4.392;2023-07-31T09:00:09;10.50;;;3.97;;
43678;SDS011;29279;50.858;4.392;2023-07-31T09:05:19;13.52;;;4.78;;
43678;SDS011;29279;50.858;4.392;2023-07-31T09:07:47;10.23;;;4.47;;
43678;SDS011;29279;50.858;4.392;2023-07-31T09:10:15;12.55;;;4.72;;
43678;SDS011;29279;50.858;4.392;2023-07-31T09:12:41;16.50;;;4.97;;
43678;SDS011;29279;50.858;4.392;2023-07-31T09:15:08;11.60;;;4.85;;
43678;SDS011;29279;50.858;4.392;2023-07-31T09:17:35;14.35;;;4.72;;
43678;SDS011;29279;50.858;4.392;2023-07-31T09:20:22;13.05;;;4.70;;
43678;SDS011;29279;50.858;4.392;2023-07-31T09:22:50;15.50;;;5.40;;
43678;SDS011;29279;50.858;4.392;2023-07-31T09:25:18;12.15;;;4.68;;
43678;SDS011;29279;50.858;4.392;2023-07-31T09:27:47;12.50;;;5.32;;
43678;SDS011;29279;50.858;4.392;2023-07-31T09:30:23;10.30;;;4.43;;
43678;SDS011;29279;50.858;4.392;2023-07-31T09:32:49;14.77;;;5.30;;
43678;SDS011;29279;50.858;4.392;2023-07-31T09:35:20;11.77;;;5.22;;
43678;SDS011;29279;50.858;4.392;2023-07-31T09:37:53;11.70;;;5.18;;
43678;SDS011;29279;50.858;4.392;2023-07-31T09:40:31;11.13;;;4.57;;
43678;SDS011;29279;50.858;4.392;2023-07-31T09:43:00;13.95;;;5.35;;
43678;SDS011;29279;50.858;4.392;2023-07-31T09:45:27;13.82;;;4.82;;
43678;SDS011;29279;50.858;4.392;2023-07-31T09:47:53;10.80;;;4.40;;
43678;SDS011;29279;50.858;4.392;2023-07-31T09:50:20;14.45;;;5.68;;
43678;SDS011;29279;50.858;4.392;2023-07-31T09:52:47;15.02;;;5.40;;
43678;SDS011;29279;50.858;4.392;2023-07-31T09:55:13;15.25;;;5.38;;
43678;SDS011;29279;50.858;4.392;2023-07-31T09:57:44;15.73;;;6.85;;
43678;SDS011;29279;50.858;4.392;2023-07-31T10:00:14;16.70;;;5.80;;
43678;SDS011;29279;50.858;4.392;2023-07-31T10:02:46;17.77;;;6.43;;
43678;SDS011;29279;50.858;4.392;2023-07-31T10:05:15;16.38;;;7.05;;
43678;SDS011;29279;50.858;4.392;2023-07-31T10:07:54;16.45;;;6.82;;
43678;SDS011;29279;50.858;4.392;2023-07-31T10:10:23;16.77;;;6.78;;
43678;SDS011;29279;50.858;4.392;2023-07-31T10:12:52;17.38;;;7.55;;
43678;SDS011;29279;50.858;4.392;2023-07-31T10:15:18;22.48;;;7.78;;
43678;SDS011;29279;50.858;4.392;2023-07-31T10:17:48;18.67;;;7.20;;
43678;SDS011;29279;50.858;4.392;2023-07-31T10:20:15;22.13;;;7.43;;
43678;SDS011;29279;50.858;4.392;2023-07-31T10:22:42;18.85;;;7.68;;
43678;SDS011;29279;50.858;4.392;2023-07-31T10:25:08;21.77;;;7.55;;
43678;SDS011;29279;50.858;4.392;2023-07-31T10:27:35;19.58;;;6.75;;
43678;SDS011;29279;50.858;4.392;2023-07-31T10:30:03;17.70;;;6.55;;
43678;SDS011;29279;50.858;4.392;2023-07-31T10:32:34;14.32;;;6.68;;
43678;SDS011;29279;50.858;4.392;2023-07-31T10:35:01;18.77;;;6.53;;
43678;SDS011;29279;50.858;4.392;2023-07-31T10:37:29;15.25;;;6.03;;
43678;SDS011;29279;50.858;4.392;2023-07-31T10:42:35;15.80;;;6.30;;
43678;SDS011;29279;50.858;4.392;2023-07-31T10:45:10;15.40;;;6.70;;
43678;SDS011;29279;50.858;4.392;2023-07-31T10:47:45;14.18;;;5.68;;
43678;SDS011;29279;50.858;4.392;2023-07-31T10:50:18;14.27;;;6.35;;
43678;SDS011;29279;50.858;4.392;2023-07-31T10:52:48;13.10;;;5.80;;
43678;SDS011;29279;50.858;4.392;2023-07-31T11:00:18;13.13;;;5.85;;
43678;SDS011;29279;50.858;4.392;2023-07-31T11:02:55;21.48;;;7.10;;
43678;SDS011;29279;50.858;4.392;2023-07-31T11:10:42;15.57;;;5.38;;
43678;SDS011;29279;50.858;4.392;2023-07-31T11:13:09;18.25;;;6.57;;
43678;SDS011;29279;50.858;4.392;2023-07-31T11:15:35;16.60;;;6.57;;
43678;SDS011;29279;50.858;4.392;2023-07-31T11:18:01;13.55;;;5.32;;
43678;SDS011;29279;50.858;4.392;2023-07-31T11:20:32;17.50;;;6.07;;
43678;SDS011;29279;50.858;4.392;2023-07-31T11:23:02;13.65;;;6.18;;
43678;SDS011;29279;50.858;4.392;2023-07-31T11:25:31;17.10;;;5.55;;
43678;SDS011;29279;50.858;4.392;2023-07-31T11:28:02;17.48;;;5.88;;
43678;SDS011;29279;50.858;4.392;2023-07-31T11:30:31;15.45;;;6.00;;
43678;SDS011;29279;50.858;4.392;2023-07-31T11:32:58;15.07;;;5.75;;
43678;SDS011;29279;50.858;4.392;2023-07-31T11:35:24;15.95;;;5.70;;
43678;SDS011;29279;50.858;4.392;2023-07-31T11:37:50;13.38;;;5.78;;
43678;SDS011;29279;50.858;4.392;2023-07-31T11:40:16;15.65;;;5.65;;
43678;SDS011;29279;50.858;4.392;2023-07-31T11:42:41;14.63;;;6.32;;
43678;SDS011;29279;50.858;4.392;2023-07-31T11:45:08;15.50;;;6.15;;
43678;SDS011;29279;50.858;4.392;2023-07-31T11:47:35;15.30;;;5.88;;
43678;SDS011;29279;50.858;4.392;2023-07-31T11:50:05;16.52;;;4.95;;
43678;SDS011;29279;50.858;4.392;2023-07-31T11:52:37;13.43;;;6.15;;
43678;SDS011;29279;50.858;4.392;2023-07-31T11:55:06;16.65;;;5.95;;
43678;SDS011;29279;50.858;4.392;2023-07-31T11:57:35;14.98;;;6.68;;
43678;SDS011;29279;50.858;4.392;2023-07-31T12:00:03;14.40;;;5.38;;
43678;SDS011;29279;50.858;4.392;2023-07-31T12:02:30;19.23;;;6.50;;
43678;SDS011;29279;50.858;4.392;2023-07-31T12:04:56;20.58;;;6.63;;
43678;SDS011;29279;50.858;4.392;2023-07-31T12:07:23;20.85;;;6.13;;
43678;SDS011;29279;50.858;4.392;2023-07-31T12:09:56;13.70;;;5.40;;
43678;SDS011;29279;50.858;4.392;2023-07-31T12:12:25;19.83;;;6.32;;
43678;SDS011;29279;50.858;4.392;2023-07-31T12:14:51;16.27;;;5.30;;
43678;SDS011;29279;50.858;4.392;2023-07-31T12:17:17;17.88;;;5.50;;
43678;SDS011;29279;50.858;4.392;2023-07-31T12:19:45;16.67;;;5.35;;
43678;SDS011;29279;50.858;4.392;2023-07-31T12:22:14;12.82;;;5.47;;
43678;SDS011;29279;50.858;4.392;2023-07-31T12:24:41;14.23;;;6.10;;
43678;SDS011;29279;50.858;4.392;2023-07-31T12:27:12;16.35;;;5.35;;
43678;SDS011;29279;50.858;4.392;2023-07-31T12:29:41;10.68;;;5.15;;
43678;SDS011;29279;50.858;4.392;2023-07-31T12:32:22;14.73;;;6.03;;
43678;SDS011;29279;50.858;4.392;2023-07-31T12:34:49;15.52;;;5.97;;
43678;SDS011;29279;50.858;4.392;2023-07-31T12:37:14;13.32;;;5.93;;
43678;SDS011;29279;50.858;4.392;2023-07-31T12:39:40;29.05;;;6.38;;
43678;SDS011;29279;50.858;4.392;2023-07-31T12:42:06;15.82;;;5.97;;
43678;SDS011;29279;50.858;4.392;2023-07-31T12:44:32;12.70;;;5.30;;
43678;SDS011;29279;50.858;4.392;2023-07-31T12:46:58;10.38;;;5.15;;
43678;SDS011;29279;50.858;4.392;2023-07-31T12:49:23;13.32;;;5.47;;
43678;SDS011;29279;50.858;4.392;2023-07-31T12:51:49;12.30;;;5.18;;
43678;SDS011;29279;50.858;4.392;2023-07-31T12:54:14;13.10;;;4.88;;
43678;SDS011;29279;50.858;4.392;2023-07-31T12:56:40;15.25;;;5.07;;
43678;SDS011;29279;50.858;4.392;2023-07-31T12:59:06;18.83;;;5.50;;
43678;SDS011;29279;50.858;4.392;2023-07-31T13:01:31;17.05;;;6.25;;
43678;SDS011;29279;50.858;4.392;2023-07-31T13:03:57;11.65;;;5.47;;
43678;SDS011;29279;50.858;4.392;2023-07-31T13:06:24;16.88;;;5.18;;
43678;SDS011;29279;50.858;4.392;2023-07-31T13:08:50;15.23;;;5.20;;
43678;SDS011;29279;50.858;4.392;2023-07-31T13:11:16;14.48;;;5.32;;
43678;SDS011;29279;50.858;4.392;2023-07-31T13:13:42;12.02;;;5.22;;
43678;SDS011;29279;50.858;4.392;2023-07-31T13:16:07;11.02;;;4.00;;
43678;SDS011;29279;50.858;4.392;2023-07-31T13:18:33;12.15;;;3.80;;
43678;SDS011;29279;50.858;4.392;2023-07-31T13:20:59;9.25;;;4.28;;
43678;SDS011;29279;50.858;4.392;2023-07-31T13:23:24;9.55;;;3.75;;
43678;SDS011;29279;50.858;4.392;2023-07-31T13:25:50;8.18;;;3.40;;
43678;SDS011;29279;50.858;4.392;2023-07-31T13:28:19;10.60;;;4.20;;
43678;SDS011;29279;50.858;4.392;2023-07-31T13:30:48;7.68;;;3.80;;
43678;SDS011;29279;50.858;4.392;2023-07-31T13:33:14;10.13;;;3.83;;
43678;SDS011;29279;50.858;4.392;2023-07-31T13:35:39;10.27;;;3.97;;
43678;SDS011;29279;50.858;4.392;2023-07-31T13:38:05;9.93;;;4.90;;
43678;SDS011;29279;50.858;4.392;2023-07-31T13:40:30;11.38;;;3.88;;
43678;SDS011;29279;50.858;4.392;2023-07-31T13:42:56;13.65;;;4.68;;
43678;SDS011;29279;50.858;4.392;2023-07-31T13:45:22;10.25;;;4.32;;
43678;SDS011;29279;50.858;4.392;2023-07-31T13:47:48;11.50;;;4.72;;
43678;SDS011;29279;50.858;4.392;2023-07-31T13:50:15;11.65;;;4.50;;
43678;SDS011;29279;50.858;4.392;2023-07-31T13:52:46;15.15;;;5.03;;
43678;SDS011;29279;50.858;4.392;2023-07-31T13:55:11;10.07;;;4.65;;
43678;SDS011;29279;50.858;4.392;2023-07-31T13:57:37;17.02;;;5.45;;
43678;SDS011;29279;50.858;4.392;2023-07-31T14:00:03;12.10;;;4.70;;
43678;SDS011;29279;50.858;4.392;2023-07-31T14:02:29;10.50;;;5.43;;
43678;SDS011;29279;50.858;4.392;2023-07-31T14:04:55;15.75;;;5.80;;
43678;SDS011;29279;50.858;4.392;2023-07-31T14:07:20;13.32;;;5.43;;
43678;SDS011;29279;50.858;4.392;2023-07-31T14:09:46;11.50;;;4.38;;
43678;SDS011;29279;50.858;4.392;2023-07-31T14:12:12;12.63;;;4.38;;
43678;SDS011;29279;50.858;4.392;2023-07-31T14:14:37;12.45;;;5.03;;
43678;SDS011;29279;50.858;4.392;2023-07-31T14:17:03;7.45;;;3.92;;
43678;SDS011;29279;50.858;4.392;2023-07-31T14:19:29;14.07;;;5.78;;
43678;SDS011;29279;50.858;4.392;2023-07-31T14:21:54;12.82;;;5.75;;
43678;SDS011;29279;50.858;4.392;2023-07-31T14:24:20;12.35;;;4.80;;
43678;SDS011;29279;50.858;4.392;2023-07-31T14:26:46;10.45;;;4.63;;
43678;SDS011;29279;50.858;4.392;2023-07-31T14:29:11;10.48;;;5.22;;
43678;SDS011;29279;50.858;4.392;2023-07-31T14:31:37;9.77;;;4.25;;
43678;SDS011;29279;50.858;4.392;2023-07-31T14:34:03;14.95;;;4.53;;
43678;SDS011;29279;50.858;4.392;2023-07-31T14:36:28;9.93;;;4.70;;
43678;SDS011;29279;50.858;4.392;2023-07-31T14:38:54;10.43;;;4.53;;
43678;SDS011;29279;50.858;4.392;2023-07-31T14:41:20;9.40;;;4.00;;
43678;SDS011;29279;50.858;4.392;2023-07-31T14:43:46;10.93;;;4.82;;
43678;SDS011;29279;50.858;4.392;2023-07-31T14:46:11;8.30;;;3.92;;
43678;SDS011;29279;50.858;4.392;2023-07-31T14:48:37;7.60;;;3.72;;
43678;SDS011;29279;50.858;4.392;2023-07-31T14:51:02;9.85;;;3.97;;
43678;SDS011;29279;50.858;4.392;2023-07-31T14:53:28;9.45;;;3.22;;